createdAt,value
2022-12-03T00:01:18.885Z,70.66
2022-12-03T00:04:00.862Z,70.58
2022-12-03T00:06:34.700Z,70.75
2022-12-03T00:09:07.332Z,70.68
2022-12-03T00:11:39.417Z,70.53
2022-12-03T00:14:11.361Z,70.65
2022-12-03T00:16:43.262Z,70.66
2022-12-03T00:19:15.166Z,70.68
2022-12-03T00:21:47.590Z,70.53
2022-12-03T00:24:19.407Z,70.72
2022-12-03T00:26:51.314Z,70.59
2022-12-03T00:29:23.137Z,70.72
2022-12-03T00:31:54.912Z,70.69
2022-12-03T00:34:26.751Z,70.82
2022-12-03T00:36:58.677Z,71.00
2022-12-03T00:39:30.489Z,70.95
2022-12-03T00:42:02.531Z,71.09
2022-12-03T00:44:34.436Z,71.16
2022-12-03T00:47:06.468Z,71.19
2022-12-03T00:49:38.571Z,71.28
2022-12-03T00:52:10.583Z,71.24
2022-12-03T00:54:42.438Z,71.29
2022-12-03T00:57:14.320Z,71.43
2022-12-03T00:59:46.241Z,71.43
2022-12-03T01:02:18.193Z,71.37
2022-12-03T01:04:50.279Z,71.27
2022-12-03T01:07:22.266Z,71.42
2022-12-03T01:09:54.053Z,71.32
2022-12-03T01:12:26.237Z,71.42
2022-12-03T01:14:58.333Z,71.39
2022-12-03T01:17:30.290Z,71.40
2022-12-03T01:20:02.382Z,71.33
2022-12-03T01:22:34.251Z,71.30
2022-12-03T01:25:06.572Z,71.30
2022-12-03T01:27:38.364Z,71.29
2022-12-03T01:30:15.489Z,71.37
2022-12-03T01:32:47.483Z,71.47
2022-12-03T01:35:19.454Z,71.54
2022-12-03T01:37:51.303Z,71.60
2022-12-03T01:40:24.111Z,71.57
2022-12-03T01:42:56.073Z,71.63
2022-12-03T01:45:28.295Z,71.69
2022-12-03T01:48:00.889Z,71.90
2022-12-03T01:50:34.996Z,72.09
2022-12-03T01:53:07.037Z,72.30
2022-12-03T01:55:39.642Z,72.49
2022-12-03T01:58:16.556Z,72.65
2022-12-03T02:00:48.525Z,73.00
2022-12-03T02:03:23.604Z,72.94
2022-12-03T02:05:57.488Z,73.01
2022-12-03T02:08:34.717Z,73.20
2022-12-03T02:11:13.260Z,73.18
2022-12-03T02:13:46.078Z,73.16
2022-12-03T02:16:18.046Z,73.66
2022-12-03T02:18:50.228Z,73.65
2022-12-03T02:21:29.092Z,73.60
2022-12-03T02:24:11.698Z,73.50
2022-12-03T02:26:43.586Z,73.96
2022-12-03T02:29:15.619Z,73.83
2022-12-03T02:31:47.626Z,73.86
2022-12-03T02:34:36.828Z,73.88
2022-12-03T02:37:12.694Z,73.76
2022-12-03T02:39:48.841Z,74.39
2022-12-03T02:42:37.900Z,73.98
2022-12-03T02:45:16.345Z,74.21
2022-12-03T02:47:50.905Z,74.40
2022-12-03T02:50:30.521Z,74.85
2022-12-03T02:53:06.440Z,75.08
2022-12-03T02:55:38.842Z,75.29
2022-12-03T02:58:12.122Z,75.34
2022-12-03T03:00:45.165Z,74.75
2022-12-03T03:03:18.591Z,74.87
2022-12-03T03:05:51.580Z,75.02
2022-12-03T03:08:24.502Z,74.75
2022-12-03T03:10:57.323Z,75.28
2022-12-03T03:13:30.980Z,74.61
2022-12-03T03:16:05.229Z,75.01
2022-12-03T03:18:37.515Z,75.21
2022-12-03T03:21:09.963Z,74.71
2022-12-03T03:23:41.773Z,75.17
2022-12-03T03:26:16.297Z,74.89
2022-12-03T03:28:51.197Z,74.80
2022-12-03T03:31:24.958Z,74.50
2022-12-03T03:33:57.178Z,74.53
2022-12-03T03:36:29.054Z,74.47
2022-12-03T03:39:00.915Z,74.35
2022-12-03T03:41:33.910Z,74.11
2022-12-03T03:44:07.624Z,74.27
2022-12-03T03:46:40.837Z,74.14
2022-12-03T03:49:13.589Z,74.35
2022-12-03T03:51:46.061Z,74.40
2022-12-03T03:54:18.762Z,74.47
2022-12-03T03:56:50.918Z,74.61
2022-12-03T03:59:22.811Z,74.57
2022-12-03T04:01:54.753Z,74.38
2022-12-03T04:04:28.950Z,74.63
2022-12-03T04:07:01.138Z,74.63
2022-12-03T04:09:33.001Z,75.11
2022-12-03T04:12:22.354Z,74.99
2022-12-03T04:14:54.836Z,75.01
2022-12-03T04:17:27.269Z,75.19
2022-12-03T04:19:59.071Z,75.40
2022-12-03T04:22:42.790Z,75.13
2022-12-03T04:25:31.467Z,75.59
2022-12-03T04:28:22.958Z,75.83
2022-12-03T04:30:54.805Z,75.81
2022-12-03T04:33:44.562Z,76.29
2022-12-03T04:36:16.422Z,75.96
2022-12-03T04:38:48.436Z,75.84
2022-12-03T04:41:20.250Z,76.07
2022-12-03T04:44:09.295Z,76.09
2022-12-03T04:46:41.242Z,75.88
2022-12-03T04:49:13.185Z,76.16
2022-12-03T04:51:45.016Z,76.24
2022-12-03T04:54:16.940Z,76.03
2022-12-03T04:56:48.787Z,76.54
2022-12-03T04:59:20.968Z,76.36
2022-12-03T05:01:52.906Z,76.36
2022-12-03T05:04:24.903Z,76.60
2022-12-03T05:06:57.245Z,76.28
2022-12-03T05:09:29.152Z,76.90
2022-12-03T05:12:00.945Z,76.83
2022-12-03T05:14:32.815Z,77.02
2022-12-03T05:17:04.751Z,76.79
2022-12-03T05:19:54.724Z,77.07
2022-12-03T05:22:26.503Z,76.89
2022-12-03T05:24:58.377Z,76.95
2022-12-03T05:27:32.883Z,76.70
2022-12-03T05:30:04.899Z,77.15
2022-12-03T05:32:36.758Z,76.88
2022-12-03T05:35:12.520Z,76.64
2022-12-03T05:37:45.004Z,76.45
2022-12-03T05:40:25.297Z,76.46
2022-12-03T05:42:58.171Z,76.55
2022-12-03T05:45:31.811Z,76.81
2022-12-03T05:48:04.552Z,76.88
2022-12-03T05:50:38.990Z,76.89
2022-12-03T05:53:11.258Z,77.28
2022-12-03T05:55:43.274Z,76.90
2022-12-03T05:58:15.091Z,77.45
2022-12-03T06:00:47.493Z,77.21
2022-12-03T06:03:19.529Z,77.36
2022-12-03T06:05:51.492Z,77.64
2022-12-03T06:08:23.411Z,78.13
2022-12-03T06:10:55.287Z,78.00
2022-12-03T06:13:27.225Z,78.00
2022-12-03T06:15:59.290Z,77.62
2022-12-03T06:18:31.273Z,77.90
2022-12-03T06:21:03.055Z,77.60
2022-12-03T06:23:34.917Z,77.56
2022-12-03T06:26:06.862Z,77.42
2022-12-03T06:28:38.717Z,77.54
2022-12-03T06:31:10.594Z,77.33
2022-12-03T06:33:42.547Z,77.74
2022-12-03T06:36:16.741Z,77.62
2022-12-03T06:38:51.759Z,77.67
2022-12-03T06:41:23.781Z,77.41
2022-12-03T06:43:55.581Z,77.44
2022-12-03T06:46:27.511Z,77.39
2022-12-03T06:48:59.385Z,77.47
2022-12-03T06:51:31.575Z,77.13
2022-12-03T06:54:03.854Z,77.18
2022-12-03T06:56:40.387Z,77.14
2022-12-03T06:59:16.769Z,77.12
2022-12-03T07:01:49.283Z,76.96
2022-12-03T07:04:21.117Z,76.75
2022-12-03T07:06:53.318Z,76.77
2022-12-03T07:09:25.150Z,76.79
2022-12-03T07:11:57.127Z,76.41
2022-12-03T07:14:29.014Z,76.17
2022-12-03T07:17:00.906Z,76.42
2022-12-03T07:19:33.258Z,76.49
2022-12-03T07:22:05.966Z,75.93
2022-12-03T07:24:37.930Z,75.70
2022-12-03T07:27:09.887Z,76.04
2022-12-03T07:29:41.718Z,75.54
2022-12-03T07:32:15.351Z,75.49
2022-12-03T07:34:47.251Z,75.44
2022-12-03T07:37:23.043Z,75.47
2022-12-03T07:39:55.392Z,75.61
2022-12-03T07:42:27.279Z,75.27
2022-12-03T07:44:59.099Z,75.31
2022-12-03T07:47:31.036Z,75.27
2022-12-03T07:50:02.849Z,75.30
2022-12-03T07:52:42.110Z,75.28
2022-12-03T07:55:14.508Z,75.65
2022-12-03T07:57:48.371Z,75.63
2022-12-03T08:00:26.544Z,75.13
2022-12-03T08:02:58.453Z,75.26
2022-12-03T08:05:30.750Z,74.92
2022-12-03T08:08:02.741Z,75.02
2022-12-03T08:10:34.679Z,75.24
2022-12-03T08:13:12.949Z,74.92
2022-12-03T08:15:45.375Z,74.97
2022-12-03T08:18:21.488Z,75.27
2022-12-03T08:20:54.253Z,74.79
2022-12-03T08:23:27.934Z,74.63
2022-12-03T08:26:02.240Z,74.56
2022-12-03T08:28:34.123Z,74.73
2022-12-03T08:31:18.256Z,74.99
2022-12-03T08:33:52.136Z,75.31
2022-12-03T08:36:36.526Z,75.33
2022-12-03T08:39:24.486Z,75.42
2022-12-03T08:42:16.877Z,75.38
2022-12-03T08:44:49.087Z,75.48
2022-12-03T08:50:29.678Z,75.71
2022-12-03T08:53:12.927Z,75.49
2022-12-03T08:55:53.139Z,75.66
2022-12-03T08:58:40.389Z,75.71
2022-12-03T09:04:55.003Z,75.22
2022-12-03T09:07:27.410Z,75.12
2022-12-03T09:09:59.715Z,75.06
2022-12-03T09:12:31.909Z,74.91
2022-12-03T09:15:03.754Z,75.15
2022-12-03T09:17:36.894Z,75.65
2022-12-03T09:20:14.474Z,75.77
2022-12-03T09:22:46.455Z,75.80
2022-12-03T09:25:18.458Z,75.73
2022-12-03T09:27:50.405Z,75.90
2022-12-03T09:30:28.746Z,75.91
2022-12-03T09:33:00.760Z,75.98
2022-12-03T09:35:32.537Z,76.26
2022-12-03T09:38:04.366Z,76.23
2022-12-03T09:40:36.754Z,76.17
2022-12-03T09:43:08.690Z,75.92
2022-12-03T09:45:40.718Z,76.02
2022-12-03T09:48:14.221Z,76.00
2022-12-03T09:50:46.897Z,76.01
2022-12-03T09:53:20.902Z,76.08
2022-12-03T09:55:52.943Z,76.14
2022-12-03T09:58:24.958Z,76.24
2022-12-03T10:00:58.182Z,76.25
2022-12-03T10:03:33.145Z,76.04
2022-12-03T10:06:05.267Z,76.12
2022-12-03T10:08:37.200Z,76.16
2022-12-03T10:11:09.652Z,76.11
2022-12-03T10:13:41.838Z,76.15
2022-12-03T10:16:16.333Z,76.02
2022-12-03T10:18:51.366Z,75.97
2022-12-03T10:21:27.112Z,75.93
2022-12-03T10:24:26.616Z,75.89
2022-12-03T10:27:00.708Z,76.10
2022-12-03T10:33:18.829Z,76.00
2022-12-03T10:35:51.502Z,76.00
2022-12-03T10:38:24.562Z,76.09
2022-12-03T10:40:58.127Z,76.04
2022-12-03T10:43:30.186Z,75.97
2022-12-03T10:46:18.478Z,75.89
2022-12-03T10:49:11.179Z,75.87
2022-12-03T10:51:43.419Z,75.69
2022-12-03T10:54:22.067Z,75.82
2022-12-03T10:56:54.630Z,75.98
2022-12-03T10:59:29.505Z,75.78
2022-12-03T11:02:01.894Z,75.91
2022-12-03T11:04:37.806Z,75.85
2022-12-03T11:13:55.256Z,75.89
2022-12-03T11:17:07.249Z,75.94
2022-12-03T11:19:48.360Z,76.08
2022-12-03T11:22:47.534Z,76.09
2022-12-03T11:25:50.987Z,76.18
2022-12-03T11:28:54.524Z,75.60
2022-12-03T11:35:15.160Z,75.55
2022-12-03T11:38:27.168Z,75.52
2022-12-03T11:41:20.099Z,75.68
2022-12-03T11:44:29.390Z,75.60
2022-12-03T11:47:15.426Z,75.76
2022-12-03T11:49:51.155Z,75.88
2022-12-03T11:52:31.198Z,75.59
2022-12-03T11:55:16.068Z,75.28
2022-12-03T11:58:16.374Z,75.18
2022-12-03T12:00:56.380Z,75.34
2022-12-03T12:03:40.845Z,75.57
2022-12-03T12:06:17.885Z,75.39
2022-12-03T12:09:00.430Z,75.63
2022-12-03T12:11:35.865Z,75.54
2022-12-03T12:14:09.587Z,75.62
2022-12-03T12:16:56.089Z,75.49
2022-12-03T12:23:29.667Z,75.65
2022-12-03T12:26:09.772Z,75.48
2022-12-03T12:28:45.039Z,75.37
2022-12-03T12:31:16.966Z,75.38
2022-12-03T12:34:12.499Z,75.50
2022-12-03T12:36:44.675Z,75.61
2022-12-03T12:39:18.435Z,75.60
2022-12-03T12:41:52.998Z,75.63
2022-12-03T12:44:26.586Z,75.75
2022-12-03T12:47:03.970Z,75.72
2022-12-03T12:49:35.950Z,75.77
2022-12-03T12:55:05.504Z,75.99
2022-12-03T12:57:44.864Z,75.76
2022-12-03T13:00:29.528Z,76.09
2022-12-03T13:03:04.073Z,75.84
2022-12-03T13:08:54.673Z,76.27
2022-12-03T13:11:41.528Z,76.20
2022-12-03T13:17:55.815Z,76.22
2022-12-03T13:26:58.602Z,75.84
2022-12-03T13:29:30.856Z,75.89
2022-12-03T13:32:15.236Z,75.78
2022-12-03T13:34:47.849Z,75.56
2022-12-03T13:37:23.638Z,75.70
2022-12-03T13:39:58.471Z,75.97
2022-12-03T13:42:42.047Z,76.13
2022-12-03T13:45:34.784Z,76.22
2022-12-03T13:48:23.765Z,76.30
2022-12-03T13:50:56.422Z,76.33
2022-12-03T13:53:34.084Z,76.45
2022-12-03T13:56:30.101Z,76.31
2022-12-03T13:59:04.428Z,76.50
2022-12-03T14:04:59.803Z,76.36
2022-12-03T14:07:32.336Z,76.43
2022-12-03T14:10:04.402Z,76.36
2022-12-03T14:12:49.973Z,76.51
2022-12-03T14:15:26.334Z,76.35
2022-12-03T14:18:10.869Z,76.57
2022-12-03T14:21:01.591Z,76.36
2022-12-03T14:23:33.671Z,76.29
2022-12-03T14:26:17.736Z,76.31
2022-12-03T14:28:49.409Z,76.05
2022-12-03T14:31:21.122Z,76.10
2022-12-03T14:33:59.126Z,76.00
2022-12-03T14:36:30.878Z,76.15
2022-12-03T14:39:24.707Z,76.13
2022-12-03T14:42:15.081Z,76.10
2022-12-03T14:44:48.558Z,76.18
2022-12-03T14:47:31.965Z,76.26
2022-12-03T14:50:14.466Z,76.06
2022-12-03T14:52:58.167Z,76.29
2022-12-03T14:55:33.972Z,76.35
2022-12-03T14:58:26.949Z,76.36
2022-12-03T15:00:58.603Z,76.50
2022-12-03T15:03:31.877Z,76.56
2022-12-03T15:06:03.525Z,76.42
2022-12-03T15:08:46.718Z,76.45
2022-12-03T15:14:44.244Z,76.63
2022-12-03T15:24:03.563Z,76.68
2022-12-03T15:26:38.130Z,76.61
2022-12-03T15:29:23.296Z,76.55
2022-12-03T15:31:55.066Z,76.63
2022-12-03T15:35:01.971Z,76.67
2022-12-03T15:37:34.486Z,76.75
2022-12-03T15:40:11.330Z,76.88
2022-12-03T15:42:43.517Z,76.94
2022-12-03T15:45:15.761Z,76.84
2022-12-03T15:47:47.707Z,76.82
2022-12-03T15:50:19.748Z,76.81
2022-12-03T15:52:51.642Z,76.89
2022-12-03T15:55:23.572Z,76.94
2022-12-03T15:57:55.414Z,76.83
2022-12-03T16:00:27.944Z,76.86
2022-12-03T16:03:04.005Z,76.96
2022-12-03T16:05:38.208Z,76.73
2022-12-03T16:08:09.902Z,76.83
2022-12-03T16:10:46.196Z,76.82
2022-12-03T16:23:37.345Z,76.76
2022-12-03T16:26:12.200Z,76.77
2022-12-03T16:28:43.940Z,76.88
2022-12-03T16:31:20.727Z,77.04
2022-12-03T16:34:00.072Z,77.14
2022-12-03T16:36:39.489Z,77.10
2022-12-03T16:39:50.846Z,77.05
2022-12-03T16:42:45.069Z,77.16
2022-12-03T16:45:53.594Z,77.08
2022-12-03T16:48:25.687Z,77.13
2022-12-03T16:50:59.169Z,77.14
2022-12-03T16:53:41.710Z,76.90
2022-12-03T16:56:37.792Z,76.80
2022-12-03T16:59:09.831Z,76.98
2022-12-03T17:01:41.827Z,76.93
2022-12-03T17:04:14.035Z,77.07
2022-12-03T17:06:46.012Z,77.14
2022-12-03T17:09:17.927Z,77.13
2022-12-03T17:11:50.019Z,77.43
2022-12-03T17:14:22.287Z,77.33
2022-12-03T17:16:54.207Z,77.53
2022-12-03T17:19:25.982Z,77.38
2022-12-03T17:21:59.863Z,77.48
2022-12-03T17:24:31.783Z,77.58
2022-12-03T17:27:06.288Z,77.60
2022-12-03T17:29:38.207Z,77.58
2022-12-03T17:32:10.363Z,77.49
2022-12-03T17:34:42.460Z,77.35
2022-12-03T17:37:15.044Z,77.44
2022-12-03T17:39:47.025Z,77.11
2022-12-03T17:42:18.987Z,77.13
2022-12-03T17:44:50.606Z,77.27
2022-12-03T17:47:22.263Z,77.23
2022-12-03T17:49:54.081Z,77.24
2022-12-03T17:52:25.903Z,77.20
2022-12-03T17:55:18.037Z,77.12
2022-12-03T17:57:49.208Z,77.21
2022-12-03T18:00:30.208Z,77.32
2022-12-03T18:03:01.855Z,77.27
2022-12-03T18:05:33.556Z,77.24
2022-12-03T18:08:05.461Z,77.39
2022-12-03T18:10:38.764Z,77.29
2022-12-03T18:13:10.469Z,77.48
2022-12-03T18:15:42.113Z,77.47
2022-12-03T18:18:14.001Z,77.37
2022-12-03T18:20:45.675Z,77.55
2022-12-03T18:23:17.410Z,77.59
2022-12-03T18:25:49.146Z,77.56
2022-12-03T18:28:21.047Z,77.70
2022-12-03T18:30:53.109Z,77.76
2022-12-03T18:33:25.238Z,77.69
2022-12-03T18:35:59.109Z,77.72
2022-12-03T18:38:34.622Z,77.73
2022-12-03T18:41:06.416Z,77.73
2022-12-03T18:43:38.147Z,77.80
2022-12-03T18:46:51.295Z,77.86
2022-12-03T18:49:06.556Z,77.93
2022-12-03T18:51:43.351Z,77.96
2022-12-03T18:54:15.819Z,78.08
2022-12-03T18:56:47.466Z,77.97
2022-12-03T18:59:20.658Z,78.09
2022-12-03T19:01:52.374Z,78.06
2022-12-03T19:04:24.258Z,78.03
2022-12-03T19:06:55.986Z,77.93
2022-12-03T19:09:27.768Z,77.85
2022-12-03T19:11:59.425Z,77.86
2022-12-03T19:14:31.906Z,77.88
2022-12-03T19:17:03.964Z,77.84
2022-12-03T19:19:36.372Z,77.92
2022-12-03T19:22:07.992Z,77.93
2022-12-03T19:24:39.674Z,77.91
2022-12-03T19:27:11.417Z,77.84
2022-12-03T19:29:43.239Z,77.81
2022-12-03T19:32:14.949Z,77.88
2022-12-03T19:34:46.669Z,77.67
2022-12-03T19:37:18.346Z,77.75
2022-12-03T19:39:53.463Z,77.85
2022-12-03T19:42:25.704Z,77.79
2022-12-03T19:44:57.440Z,77.71
2022-12-03T19:47:29.159Z,77.72
2022-12-03T19:50:01.133Z,77.81
2022-12-03T19:52:35.279Z,77.80
2022-12-03T19:55:08.039Z,77.86
2022-12-03T19:57:42.242Z,77.74
2022-12-03T20:00:24.972Z,77.69
2022-12-03T20:02:56.823Z,77.78
2022-12-03T20:05:33.158Z,77.84
2022-12-03T20:08:06.488Z,77.89
2022-12-03T20:10:38.390Z,77.82
2022-12-03T20:13:10.128Z,77.96
2022-12-03T20:15:41.765Z,77.99
2022-12-03T20:18:13.418Z,77.85
2022-12-03T20:20:45.071Z,77.87
2022-12-03T20:23:17.002Z,77.94
2022-12-03T20:25:48.669Z,77.95
2022-12-03T20:28:20.529Z,78.12
2022-12-03T20:31:00.737Z,78.20
2022-12-03T20:33:32.723Z,78.35
2022-12-03T20:36:04.835Z,78.31
2022-12-03T20:38:37.257Z,78.48
2022-12-03T20:41:12.412Z,78.55
2022-12-03T20:43:44.288Z,78.52
2022-12-03T20:46:18.461Z,78.46
2022-12-03T20:48:54.127Z,78.54
2022-12-03T20:51:28.164Z,78.75
2022-12-03T20:54:00.911Z,78.53
2022-12-03T20:56:35.796Z,78.57
2022-12-03T20:59:09.468Z,78.69
2022-12-03T21:01:41.540Z,78.59
2022-12-03T21:04:16.191Z,78.64
2022-12-03T21:06:48.321Z,78.58
2022-12-03T21:09:20.084Z,78.59
2022-12-03T21:11:51.783Z,78.48
2022-12-03T21:14:24.967Z,78.43
2022-12-03T21:17:08.536Z,78.37
2022-12-03T21:19:41.193Z,78.59
2022-12-03T21:22:12.912Z,78.60
2022-12-03T21:24:44.686Z,78.63
2022-12-03T21:27:21.366Z,78.58
2022-12-03T21:29:55.382Z,78.63
2022-12-03T21:32:27.438Z,78.68
2022-12-03T21:34:59.083Z,78.59
2022-12-03T21:37:31.048Z,78.66
2022-12-03T21:40:02.911Z,78.58
2022-12-03T21:42:37.183Z,78.66
2022-12-03T21:45:10.477Z,78.66
2022-12-03T21:47:42.282Z,78.68
2022-12-03T21:50:15.963Z,78.60
2022-12-03T21:52:47.628Z,78.61
2022-12-03T21:55:19.491Z,78.59
2022-12-03T21:57:54.055Z,78.86
2022-12-03T22:00:27.558Z,78.90
2022-12-03T22:02:59.266Z,78.84
2022-12-03T22:05:31.036Z,78.95
2022-12-03T22:08:02.874Z,78.83
2022-12-03T22:10:34.657Z,78.97
2022-12-03T22:13:06.329Z,79.04
2022-12-03T22:15:40.560Z,79.10
2022-12-03T22:18:14.574Z,78.89
2022-12-03T22:20:46.381Z,79.26
2022-12-03T22:23:18.059Z,79.16
2022-12-03T22:25:57.865Z,79.23
2022-12-03T22:28:31.724Z,79.17
2022-12-03T22:31:05.910Z,79.16
2022-12-03T22:33:38.504Z,79.44
2022-12-03T22:36:19.916Z,79.33
2022-12-03T22:38:52.280Z,79.65
2022-12-03T22:41:23.966Z,79.41
2022-12-03T22:43:55.803Z,79.49
2022-12-03T22:46:28.121Z,79.52
2022-12-03T22:49:06.432Z,79.47
2022-12-03T22:51:38.626Z,79.63
2022-12-03T22:54:11.675Z,79.67
2022-12-03T22:56:43.732Z,79.57
2022-12-03T22:59:15.633Z,79.60
2022-12-03T23:01:47.480Z,79.62
2022-12-03T23:04:19.207Z,79.36
2022-12-03T23:06:54.038Z,79.28
2022-12-03T23:09:25.757Z,79.50
2022-12-03T23:11:57.474Z,79.37
2022-12-03T23:14:29.505Z,79.40
2022-12-03T23:17:01.135Z,79.44
2022-12-03T23:19:32.861Z,79.38
2022-12-03T23:22:04.563Z,79.49
2022-12-03T23:24:36.248Z,79.63
2022-12-03T23:27:08.099Z,79.59
2022-12-03T23:29:40.074Z,79.58
2022-12-03T23:32:11.702Z,79.42
2022-12-03T23:34:46.029Z,79.62
2022-12-03T23:37:17.701Z,79.75
2022-12-03T23:39:51.098Z,79.47
2022-12-03T23:42:22.981Z,79.60
2022-12-03T23:44:54.786Z,79.76
2022-12-03T23:47:26.374Z,79.54
2022-12-03T23:49:58.013Z,79.63
2022-12-03T23:52:32.403Z,79.56
2022-12-03T23:55:04.560Z,79.54
2022-12-03T23:57:36.490Z,79.63
